Rumney, New Hampshire
Current Conditions -  °F | °C
As of 2:15 AM on Thursday 27 Nov 2014 (Local Time) from K1P1 Reporting Station
Light Snow Light Snow  
Wind Chill: 25°   Ceiling: 1800
Heat Index: 32°   Visibility: 3mi
Dew Point: 32°   Wind: 8mph
Humidity: 100%   Direction: 280°W
Pressure: 29.78"   Gusts: NA
Location:  43.81°N, 71.81°W
Report Text: K1P1 270715Z AUTO 28007KT 3SM -SN OVC018 00/00 A2978 RMK AO2 T10011001
Loading
Personal Weather Stations






























Interactive Weather Map New forecast layout! Learn more

10-Day Weather Forecast

Advertisements
Track Severe Weather on mobile